sensor_id;sensor_type;location;lat;lon;timestamp;temperature;humidity
8420;DHT22;4247;48.550;8.822;2024-02-23T00:02:17;5.90;99.90
8420;DHT22;4247;48.550;8.822;2024-02-23T00:04:43;5.90;99.90
8420;DHT22;4247;48.550;8.822;2024-02-23T00:07:10;5.80;99.90
8420;DHT22;4247;48.550;8.822;2024-02-23T00:09:37;5.90;99.90
8420;DHT22;4247;48.550;8.822;2024-02-23T00:12:05;5.80;99.90
8420;DHT22;4247;48.550;8.822;2024-02-23T00:14:34;5.80;99.90
8420;DHT22;4247;48.550;8.822;2024-02-23T00:17:01;5.90;99.90
8420;DHT22;4247;48.550;8.822;2024-02-23T00:19:30;5.90;99.90
8420;DHT22;4247;48.550;8.822;2024-02-23T00:21:57;5.90;99.90
8420;DHT22;4247;48.550;8.822;2024-02-23T00:24:24;5.90;99.90
8420;DHT22;4247;48.550;8.822;2024-02-23T00:26:51;5.90;99.90
8420;DHT22;4247;48.550;8.822;2024-02-23T00:29:19;5.90;99.90
8420;DHT22;4247;48.550;8.822;2024-02-23T00:31:47;6.00;99.90
8420;DHT22;4247;48.550;8.822;2024-02-23T00:34:13;6.00;99.90
8420;DHT22;4247;48.550;8.822;2024-02-23T00:36:41;5.90;99.90
8420;DHT22;4247;48.550;8.822;2024-02-23T00:39:10;5.90;99.90
8420;DHT22;4247;48.550;8.822;2024-02-23T00:41:37;6.00;99.90
8420;DHT22;4247;48.550;8.822;2024-02-23T00:44:04;5.90;99.90
8420;DHT22;4247;48.550;8.822;2024-02-23T00:46:32;5.90;99.90
8420;DHT22;4247;48.550;8.822;2024-02-23T00:48:59;5.80;99.90
8420;DHT22;4247;48.550;8.822;2024-02-23T00:51:26;5.80;99.90
8420;DHT22;4247;48.550;8.822;2024-02-23T00:53:52;5.80;99.90
8420;DHT22;4247;48.550;8.822;2024-02-23T00:56:19;5.80;99.90
8420;DHT22;4247;48.550;8.822;2024-02-23T00:58:46;5.80;99.90
8420;DHT22;4247;48.550;8.822;2024-02-23T01:01:12;5.70;99.90
8420;DHT22;4247;48.550;8.822;2024-02-23T01:03:41;5.70;99.90
8420;DHT22;4247;48.550;8.822;2024-02-23T01:06:07;5.70;99.90
8420;DHT22;4247;48.550;8.822;2024-02-23T01:08:34;5.60;99.90
8420;DHT22;4247;48.550;8.822;2024-02-23T01:11:01;5.60;99.90
8420;DHT22;4247;48.550;8.822;2024-02-23T01:13:27;5.60;99.90
8420;DHT22;4247;48.550;8.822;2024-02-23T01:15:54;5.60;99.90
8420;DHT22;4247;48.550;8.822;2024-02-23T01:18:21;5.50;99.90
8420;DHT22;4247;48.550;8.822;2024-02-23T01:20:49;5.50;99.90
8420;DHT22;4247;48.550;8.822;2024-02-23T01:23:14;5.50;99.90
8420;DHT22;4247;48.550;8.822;2024-02-23T01:25:41;5.50;99.90
8420;DHT22;4247;48.550;8.822;2024-02-23T01:28:08;5.50;99.90
8420;DHT22;4247;48.550;8.822;2024-02-23T01:30:35;5.50;99.90
8420;DHT22;4247;48.550;8.822;2024-02-23T01:33:02;5.50;99.90
8420;DHT22;4247;48.550;8.822;2024-02-23T01:35:29;5.50;99.90
8420;DHT22;4247;48.550;8.822;2024-02-23T01:37:57;5.50;99.90
8420;DHT22;4247;48.550;8.822;2024-02-23T01:40:23;5.40;99.90
8420;DHT22;4247;48.550;8.822;2024-02-23T01:43:00;5.50;99.90
8420;DHT22;4247;48.550;8.822;2024-02-23T01:45:27;5.50;99.90
8420;DHT22;4247;48.550;8.822;2024-02-23T01:47:54;5.50;99.90
8420;DHT22;4247;48.550;8.822;2024-02-23T01:50:21;5.50;99.90
8420;DHT22;4247;48.550;8.822;2024-02-23T01:52:48;5.40;99.90
8420;DHT22;4247;48.550;8.822;2024-02-23T01:55:19;5.40;99.90
8420;DHT22;4247;48.550;8.822;2024-02-23T01:57:47;5.40;99.90
8420;DHT22;4247;48.550;8.822;2024-02-23T02:00:17;5.40;99.90
8420;DHT22;4247;48.550;8.822;2024-02-23T02:02:44;5.40;99.90
8420;DHT22;4247;48.550;8.822;2024-02-23T02:05:10;5.40;99.90
8420;DHT22;4247;48.550;8.822;2024-02-23T02:07:37;5.40;99.90
8420;DHT22;4247;48.550;8.822;2024-02-23T02:10:08;5.40;99.90
8420;DHT22;4247;48.550;8.822;2024-02-23T02:12:36;5.40;99.90
8420;DHT22;4247;48.550;8.822;2024-02-23T02:15:04;5.40;99.90
8420;DHT22;4247;48.550;8.822;2024-02-23T02:17:31;5.30;99.90
8420;DHT22;4247;48.550;8.822;2024-02-23T02:19:58;5.30;99.90
8420;DHT22;4247;48.550;8.822;2024-02-23T02:22:25;5.30;99.90
8420;DHT22;4247;48.550;8.822;2024-02-23T02:24:52;5.30;99.90
8420;DHT22;4247;48.550;8.822;2024-02-23T02:27:18;5.30;99.90
8420;DHT22;4247;48.550;8.822;2024-02-23T02:29:50;5.30;99.90
8420;DHT22;4247;48.550;8.822;2024-02-23T02:32:16;5.30;99.90
8420;DHT22;4247;48.550;8.822;2024-02-23T02:34:43;5.30;99.90
8420;DHT22;4247;48.550;8.822;2024-02-23T02:37:10;5.30;99.90
8420;DHT22;4247;48.550;8.822;2024-02-23T02:39:36;5.30;99.90
8420;DHT22;4247;48.550;8.822;2024-02-23T02:42:03;5.30;99.90
8420;DHT22;4247;48.550;8.822;2024-02-23T02:44:30;5.30;99.90
8420;DHT22;4247;48.550;8.822;2024-02-23T02:46:58;5.20;99.90
8420;DHT22;4247;48.550;8.822;2024-02-23T02:49:25;5.20;99.90
8420;DHT22;4247;48.550;8.822;2024-02-23T02:51:52;5.20;99.90
8420;DHT22;4247;48.550;8.822;2024-02-23T02:54:18;5.20;99.90
8420;DHT22;4247;48.550;8.822;2024-02-23T02:56:46;5.10;99.90
8420;DHT22;4247;48.550;8.822;2024-02-23T02:59:13;5.10;99.90
8420;DHT22;4247;48.550;8.822;2024-02-23T03:01:40;5.10;99.90
8420;DHT22;4247;48.550;8.822;2024-02-23T03:04:08;5.10;99.90
8420;DHT22;4247;48.550;8.822;2024-02-23T03:06:35;5.00;99.90
8420;DHT22;4247;48.550;8.822;2024-02-23T03:09:01;5.00;99.90
8420;DHT22;4247;48.550;8.822;2024-02-23T03:11:28;5.00;99.90
8420;DHT22;4247;48.550;8.822;2024-02-23T03:13:55;5.00;99.90
8420;DHT22;4247;48.550;8.822;2024-02-23T03:16:22;5.00;99.90
8420;DHT22;4247;48.550;8.822;2024-02-23T03:18:51;4.90;99.90
8420;DHT22;4247;48.550;8.822;2024-02-23T03:21:20;4.90;99.90
8420;DHT22;4247;48.550;8.822;2024-02-23T03:23:47;4.90;99.90
8420;DHT22;4247;48.550;8.822;2024-02-23T03:26:14;4.90;99.90
8420;DHT22;4247;48.550;8.822;2024-02-23T03:28:42;4.80;99.90
8420;DHT22;4247;48.550;8.822;2024-02-23T03:31:09;4.80;99.90
8420;DHT22;4247;48.550;8.822;2024-02-23T03:33:36;4.80;99.90
8420;DHT22;4247;48.550;8.822;2024-02-23T03:36:03;4.80;99.90
8420;DHT22;4247;48.550;8.822;2024-02-23T03:38:31;4.70;99.90
8420;DHT22;4247;48.550;8.822;2024-02-23T03:40:59;4.70;99.90
8420;DHT22;4247;48.550;8.822;2024-02-23T03:43:26;4.80;99.90
8420;DHT22;4247;48.550;8.822;2024-02-23T03:45:52;4.80;99.90
8420;DHT22;4247;48.550;8.822;2024-02-23T03:48:19;4.80;99.90
8420;DHT22;4247;48.550;8.822;2024-02-23T03:50:46;4.80;99.90
8420;DHT22;4247;48.550;8.822;2024-02-23T03:53:13;4.80;99.90
8420;DHT22;4247;48.550;8.822;2024-02-23T03:55:41;4.90;99.90
8420;DHT22;4247;48.550;8.822;2024-02-23T03:58:07;4.90;99.90
8420;DHT22;4247;48.550;8.822;2024-02-23T04:00:34;4.90;99.90
8420;DHT22;4247;48.550;8.822;2024-02-23T04:03:01;4.90;99.90
8420;DHT22;4247;48.550;8.822;2024-02-23T04:05:27;4.80;99.90
8420;DHT22;4247;48.550;8.822;2024-02-23T04:07:54;4.80;99.90
8420;DHT22;4247;48.550;8.822;2024-02-23T04:10:21;4.80;99.90
8420;DHT22;4247;48.550;8.822;2024-02-23T04:12:49;4.80;99.90
8420;DHT22;4247;48.550;8.822;2024-02-23T04:15:15;4.80;99.90
8420;DHT22;4247;48.550;8.822;2024-02-23T04:17:43;4.80;99.90
8420;DHT22;4247;48.550;8.822;2024-02-23T04:20:10;4.80;99.90
8420;DHT22;4247;48.550;8.822;2024-02-23T04:22:36;4.80;99.90
8420;DHT22;4247;48.550;8.822;2024-02-23T04:25:04;4.80;99.90
8420;DHT22;4247;48.550;8.822;2024-02-23T04:27:31;4.80;99.90
8420;DHT22;4247;48.550;8.822;2024-02-23T04:30:00;4.80;99.90
8420;DHT22;4247;48.550;8.822;2024-02-23T04:32:26;4.70;99.90
8420;DHT22;4247;48.550;8.822;2024-02-23T04:34:53;4.70;99.90
8420;DHT22;4247;48.550;8.822;2024-02-23T04:37:20;4.70;99.90
8420;DHT22;4247;48.550;8.822;2024-02-23T04:39:46;4.70;99.90
8420;DHT22;4247;48.550;8.822;2024-02-23T04:42:13;4.70;99.90
8420;DHT22;4247;48.550;8.822;2024-02-23T04:44:41;4.70;99.90
8420;DHT22;4247;48.550;8.822;2024-02-23T04:47:09;4.60;99.90
8420;DHT22;4247;48.550;8.822;2024-02-23T04:49:36;4.60;99.90
8420;DHT22;4247;48.550;8.822;2024-02-23T04:52:04;4.60;99.90
8420;DHT22;4247;48.550;8.822;2024-02-23T04:54:31;4.60;99.90
8420;DHT22;4247;48.550;8.822;2024-02-23T04:56:58;4.60;99.90
8420;DHT22;4247;48.550;8.822;2024-02-23T04:59:24;4.60;99.90
8420;DHT22;4247;48.550;8.822;2024-02-23T05:01:51;4.60;99.90
8420;DHT22;4247;48.550;8.822;2024-02-23T05:04:19;4.60;99.90
8420;DHT22;4247;48.550;8.822;2024-02-23T05:06:46;4.60;99.90
8420;DHT22;4247;48.550;8.822;2024-02-23T05:09:13;4.60;99.90
8420;DHT22;4247;48.550;8.822;2024-02-23T05:11:40;4.60;99.90
8420;DHT22;4247;48.550;8.822;2024-02-23T05:14:07;4.50;99.90
8420;DHT22;4247;48.550;8.822;2024-02-23T05:16:33;4.50;99.90
8420;DHT22;4247;48.550;8.822;2024-02-23T05:19:00;4.50;99.90
8420;DHT22;4247;48.550;8.822;2024-02-23T05:21:29;4.40;99.90
8420;DHT22;4247;48.550;8.822;2024-02-23T05:23:56;4.40;99.90
8420;DHT22;4247;48.550;8.822;2024-02-23T05:26:23;4.40;99.90
8420;DHT22;4247;48.550;8.822;2024-02-23T05:28:50;4.40;99.90
8420;DHT22;4247;48.550;8.822;2024-02-23T05:31:17;4.40;99.90
8420;DHT22;4247;48.550;8.822;2024-02-23T05:33:45;4.50;99.90
8420;DHT22;4247;48.550;8.822;2024-02-23T05:36:12;4.40;99.90
8420;DHT22;4247;48.550;8.822;2024-02-23T05:38:40;4.40;99.90
8420;DHT22;4247;48.550;8.822;2024-02-23T05:41:12;4.40;99.90
8420;DHT22;4247;48.550;8.822;2024-02-23T05:43:39;4.40;99.90
8420;DHT22;4247;48.550;8.822;2024-02-23T05:46:05;4.40;99.90
8420;DHT22;4247;48.550;8.822;2024-02-23T05:48:32;4.40;99.90
8420;DHT22;4247;48.550;8.822;2024-02-23T05:50:59;4.30;99.90
8420;DHT22;4247;48.550;8.822;2024-02-23T05:53:25;4.30;99.90
8420;DHT22;4247;48.550;8.822;2024-02-23T05:55:58;4.30;99.90
8420;DHT22;4247;48.550;8.822;2024-02-23T05:58:24;4.30;99.90
8420;DHT22;4247;48.550;8.822;2024-02-23T06:00:51;4.30;99.90
8420;DHT22;4247;48.550;8.822;2024-02-23T06:03:18;4.40;99.90
8420;DHT22;4247;48.550;8.822;2024-02-23T06:05:46;4.40;99.90
8420;DHT22;4247;48.550;8.822;2024-02-23T06:08:12;4.40;99.90
8420;DHT22;4247;48.550;8.822;2024-02-23T06:10:39;4.40;99.90
8420;DHT22;4247;48.550;8.822;2024-02-23T06:13:09;4.40;99.90
8420;DHT22;4247;48.550;8.822;2024-02-23T06:15:36;4.40;99.90
8420;DHT22;4247;48.550;8.822;2024-02-23T06:18:04;4.30;99.90
8420;DHT22;4247;48.550;8.822;2024-02-23T06:20:31;4.40;99.90
8420;DHT22;4247;48.550;8.822;2024-02-23T06:22:58;4.30;99.90
8420;DHT22;4247;48.550;8.822;2024-02-23T06:25:24;4.30;99.90
8420;DHT22;4247;48.550;8.822;2024-02-23T06:27:51;4.30;99.90
8420;DHT22;4247;48.550;8.822;2024-02-23T06:30:19;4.30;99.90
8420;DHT22;4247;48.550;8.822;2024-02-23T06:32:46;4.30;99.90
8420;DHT22;4247;48.550;8.822;2024-02-23T06:35:13;4.20;99.90
8420;DHT22;4247;48.550;8.822;2024-02-23T06:37:40;4.30;99.90
8420;DHT22;4247;48.550;8.822;2024-02-23T06:40:07;4.20;99.90
8420;DHT22;4247;48.550;8.822;2024-02-23T06:42:34;4.30;99.90
8420;DHT22;4247;48.550;8.822;2024-02-23T06:45:01;4.30;99.90
8420;DHT22;4247;48.550;8.822;2024-02-23T06:47:29;4.30;99.90
8420;DHT22;4247;48.550;8.822;2024-02-23T06:49:55;4.30;99.90
8420;DHT22;4247;48.550;8.822;2024-02-23T06:52:22;4.30;99.90
8420;DHT22;4247;48.550;8.822;2024-02-23T06:54:51;4.30;99.90
8420;DHT22;4247;48.550;8.822;2024-02-23T06:57:18;4.30;99.90
8420;DHT22;4247;48.550;8.822;2024-02-23T06:59:44;4.30;99.90
8420;DHT22;4247;48.550;8.822;2024-02-23T07:02:11;4.30;99.90
8420;DHT22;4247;48.550;8.822;2024-02-23T07:04:39;4.30;99.90
8420;DHT22;4247;48.550;8.822;2024-02-23T07:07:06;4.40;99.90
8420;DHT22;4247;48.550;8.822;2024-02-23T07:09:34;4.30;99.90
8420;DHT22;4247;48.550;8.822;2024-02-23T07:12:00;4.40;99.90
8420;DHT22;4247;48.550;8.822;2024-02-23T07:14:27;4.40;99.90
8420;DHT22;4247;48.550;8.822;2024-02-23T07:16:54;4.40;99.90
8420;DHT22;4247;48.550;8.822;2024-02-23T07:19:20;4.40;99.90
8420;DHT22;4247;48.550;8.822;2024-02-23T07:21:49;4.50;99.90
8420;DHT22;4247;48.550;8.822;2024-02-23T07:24:15;4.50;99.90
8420;DHT22;4247;48.550;8.822;2024-02-23T07:26:43;4.50;99.90
8420;DHT22;4247;48.550;8.822;2024-02-23T07:29:09;4.50;99.90
8420;DHT22;4247;48.550;8.822;2024-02-23T07:31:36;4.50;99.90
8420;DHT22;4247;48.550;8.822;2024-02-23T07:34:03;4.60;99.90
8420;DHT22;4247;48.550;8.822;2024-02-23T07:36:29;4.60;99.90
8420;DHT22;4247;48.550;8.822;2024-02-23T07:38:57;4.60;99.90
8420;DHT22;4247;48.550;8.822;2024-02-23T07:41:24;4.60;99.90
8420;DHT22;4247;48.550;8.822;2024-02-23T07:43:51;4.60;99.90
8420;DHT22;4247;48.550;8.822;2024-02-23T07:46:17;4.60;99.90
8420;DHT22;4247;48.550;8.822;2024-02-23T07:48:45;4.60;99.90
8420;DHT22;4247;48.550;8.822;2024-02-23T07:51:13;4.50;99.90
8420;DHT22;4247;48.550;8.822;2024-02-23T07:53:40;4.50;99.90
8420;DHT22;4247;48.550;8.822;2024-02-23T07:56:08;4.50;99.90
8420;DHT22;4247;48.550;8.822;2024-02-23T07:58:35;4.40;99.90
8420;DHT22;4247;48.550;8.822;2024-02-23T08:01:02;4.40;99.90
8420;DHT22;4247;48.550;8.822;2024-02-23T08:03:29;4.40;99.90
8420;DHT22;4247;48.550;8.822;2024-02-23T08:05:57;4.40;99.90
8420;DHT22;4247;48.550;8.822;2024-02-23T08:08:23;4.40;99.90
8420;DHT22;4247;48.550;8.822;2024-02-23T08:10:52;4.40;99.90
8420;DHT22;4247;48.550;8.822;2024-02-23T08:13:20;4.40;99.90
8420;DHT22;4247;48.550;8.822;2024-02-23T08:15:47;4.30;99.90
8420;DHT22;4247;48.550;8.822;2024-02-23T08:18:13;4.30;99.90
8420;DHT22;4247;48.550;8.822;2024-02-23T08:20:40;4.30;99.90
8420;DHT22;4247;48.550;8.822;2024-02-23T08:23:07;4.20;99.90
8420;DHT22;4247;48.550;8.822;2024-02-23T08:25:34;4.20;99.90
8420;DHT22;4247;48.550;8.822;2024-02-23T08:28:01;4.20;99.90
8420;DHT22;4247;48.550;8.822;2024-02-23T08:30:29;4.10;99.90
8420;DHT22;4247;48.550;8.822;2024-02-23T08:32:57;4.20;99.90
8420;DHT22;4247;48.550;8.822;2024-02-23T08:35:24;4.10;99.90
8420;DHT22;4247;48.550;8.822;2024-02-23T08:37:51;4.10;99.90
8420;DHT22;4247;48.550;8.822;2024-02-23T08:40:18;4.10;99.90
8420;DHT22;4247;48.550;8.822;2024-02-23T08:42:45;4.10;99.90
8420;DHT22;4247;48.550;8.822;2024-02-23T08:45:12;4.20;99.90
8420;DHT22;4247;48.550;8.822;2024-02-23T08:47:41;4.10;99.90
8420;DHT22;4247;48.550;8.822;2024-02-23T08:50:08;4.20;99.90
8420;DHT22;4247;48.550;8.822;2024-02-23T08:52:35;4.30;99.90
8420;DHT22;4247;48.550;8.822;2024-02-23T08:55:03;4.30;99.90
8420;DHT22;4247;48.550;8.822;2024-02-23T08:57:30;4.40;99.90
8420;DHT22;4247;48.550;8.822;2024-02-23T08:59:56;4.50;99.90
8420;DHT22;4247;48.550;8.822;2024-02-23T09:02:23;4.50;99.90
8420;DHT22;4247;48.550;8.822;2024-02-23T09:04:51;4.60;99.90
8420;DHT22;4247;48.550;8.822;2024-02-23T09:07:18;4.60;99.90
8420;DHT22;4247;48.550;8.822;2024-02-23T09:09:46;4.70;99.90
8420;DHT22;4247;48.550;8.822;2024-02-23T09:12:14;4.80;99.90
8420;DHT22;4247;48.550;8.822;2024-02-23T09:14:41;4.80;99.90
8420;DHT22;4247;48.550;8.822;2024-02-23T09:17:08;4.90;99.90
8420;DHT22;4247;48.550;8.822;2024-02-23T09:19:36;4.90;99.90
8420;DHT22;4247;48.550;8.822;2024-02-23T09:22:04;4.90;99.90
8420;DHT22;4247;48.550;8.822;2024-02-23T09:24:31;4.90;99.90
8420;DHT22;4247;48.550;8.822;2024-02-23T09:26:57;5.00;99.90
8420;DHT22;4247;48.550;8.822;2024-02-23T09:29:25;5.00;99.90
8420;DHT22;4247;48.550;8.822;2024-02-23T09:31:51;5.00;99.90
8420;DHT22;4247;48.550;8.822;2024-02-23T09:34:18;5.10;99.90
8420;DHT22;4247;48.550;8.822;2024-02-23T09:36:45;5.20;99.90
8420;DHT22;4247;48.550;8.822;2024-02-23T09:39:13;5.30;99.90
8420;DHT22;4247;48.550;8.822;2024-02-23T09:41:39;5.40;99.90
8420;DHT22;4247;48.550;8.822;2024-02-23T09:44:08;5.50;99.90
8420;DHT22;4247;48.550;8.822;2024-02-23T09:46:37;5.50;99.90
8420;DHT22;4247;48.550;8.822;2024-02-23T09:49:04;5.60;99.90
8420;DHT22;4247;48.550;8.822;2024-02-23T09:51:34;5.70;99.90
8420;DHT22;4247;48.550;8.822;2024-02-23T09:54:02;5.80;99.90
8420;DHT22;4247;48.550;8.822;2024-02-23T09:56:30;5.80;99.90
8420;DHT22;4247;48.550;8.822;2024-02-23T09:59:01;5.80;99.90
8420;DHT22;4247;48.550;8.822;2024-02-23T10:01:29;5.90;99.90
8420;DHT22;4247;48.550;8.822;2024-02-23T10:03:58;6.00;99.90
8420;DHT22;4247;48.550;8.822;2024-02-23T10:06:25;6.10;99.90
8420;DHT22;4247;48.550;8.822;2024-02-23T10:08:51;6.20;99.90
8420;DHT22;4247;48.550;8.822;2024-02-23T10:11:20;6.30;99.90
8420;DHT22;4247;48.550;8.822;2024-02-23T10:13:49;6.30;99.90
8420;DHT22;4247;48.550;8.822;2024-02-23T10:16:17;6.40;99.90
8420;DHT22;4247;48.550;8.822;2024-02-23T10:18:46;6.30;99.90
8420;DHT22;4247;48.550;8.822;2024-02-23T10:21:13;6.30;99.90
8420;DHT22;4247;48.550;8.822;2024-02-23T10:23:40;6.30;99.90
8420;DHT22;4247;48.550;8.822;2024-02-23T10:26:07;6.30;99.90
8420;DHT22;4247;48.550;8.822;2024-02-23T10:28:34;6.30;99.90
8420;DHT22;4247;48.550;8.822;2024-02-23T10:31:03;6.40;99.90
8420;DHT22;4247;48.550;8.822;2024-02-23T10:33:30;6.40;99.90
8420;DHT22;4247;48.550;8.822;2024-02-23T10:35:58;6.40;99.90
8420;DHT22;4247;48.550;8.822;2024-02-23T10:38:26;6.50;99.90
8420;DHT22;4247;48.550;8.822;2024-02-23T10:40:55;6.60;99.90
8420;DHT22;4247;48.550;8.822;2024-02-23T10:43:26;6.60;99.90
8420;DHT22;4247;48.550;8.822;2024-02-23T10:45:57;6.50;99.90
8420;DHT22;4247;48.550;8.822;2024-02-23T10:48:27;6.60;99.90
8420;DHT22;4247;48.550;8.822;2024-02-23T10:50:55;6.60;99.90
8420;DHT22;4247;48.550;8.822;2024-02-23T10:53:23;6.80;99.90
8420;DHT22;4247;48.550;8.822;2024-02-23T10:55:52;6.80;99.90
8420;DHT22;4247;48.550;8.822;2024-02-23T10:58:22;6.90;99.90
8420;DHT22;4247;48.550;8.822;2024-02-23T11:00:49;7.00;99.90
8420;DHT22;4247;48.550;8.822;2024-02-23T11:03:16;6.90;99.90
8420;DHT22;4247;48.550;8.822;2024-02-23T11:05:47;7.00;99.90
8420;DHT22;4247;48.550;8.822;2024-02-23T11:08:14;7.10;99.90
8420;DHT22;4247;48.550;8.822;2024-02-23T11:10:43;7.10;99.90
8420;DHT22;4247;48.550;8.822;2024-02-23T11:13:15;7.10;99.90
8420;DHT22;4247;48.550;8.822;2024-02-23T11:15:42;7.10;99.90
8420;DHT22;4247;48.550;8.822;2024-02-23T11:18:21;7.10;99.90
8420;DHT22;4247;48.550;8.822;2024-02-23T11:20:55;7.10;99.90
8420;DHT22;4247;48.550;8.822;2024-02-23T11:23:22;7.10;99.90
8420;DHT22;4247;48.550;8.822;2024-02-23T11:26:04;7.20;99.90
8420;DHT22;4247;48.550;8.822;2024-02-23T11:28:31;7.40;99.90
8420;DHT22;4247;48.550;8.822;2024-02-23T11:30:58;7.50;99.90
8420;DHT22;4247;48.550;8.822;2024-02-23T11:33:28;7.60;99.90
8420;DHT22;4247;48.550;8.822;2024-02-23T11:36:06;7.60;99.90
8420;DHT22;4247;48.550;8.822;2024-02-23T11:38:33;7.60;99.90
8420;DHT22;4247;48.550;8.822;2024-02-23T11:41:00;7.70;99.90
8420;DHT22;4247;48.550;8.822;2024-02-23T11:43:28;7.70;99.90
8420;DHT22;4247;48.550;8.822;2024-02-23T11:45:55;7.80;99.90
8420;DHT22;4247;48.550;8.822;2024-02-23T11:48:22;7.80;99.90
8420;DHT22;4247;48.550;8.822;2024-02-23T11:50:48;7.80;99.90
8420;DHT22;4247;48.550;8.822;2024-02-23T11:53:16;7.80;99.90
8420;DHT22;4247;48.550;8.822;2024-02-23T11:55:44;8.00;99.90
8420;DHT22;4247;48.550;8.822;2024-02-23T11:58:11;8.00;99.90
8420;DHT22;4247;48.550;8.822;2024-02-23T12:00:39;8.10;99.90
8420;DHT22;4247;48.550;8.822;2024-02-23T12:03:06;8.00;99.90
8420;DHT22;4247;48.550;8.822;2024-02-23T12:05:33;8.10;99.90
8420;DHT22;4247;48.550;8.822;2024-02-23T12:08:00;8.20;99.90
8420;DHT22;4247;48.550;8.822;2024-02-23T12:10:28;8.20;99.90
8420;DHT22;4247;48.550;8.822;2024-02-23T12:12:55;8.20;99.90
8420;DHT22;4247;48.550;8.822;2024-02-23T12:15:22;8.20;99.90
8420;DHT22;4247;48.550;8.822;2024-02-23T12:17:49;8.30;99.90
8420;DHT22;4247;48.550;8.822;2024-02-23T12:20:16;8.30;99.90
8420;DHT22;4247;48.550;8.822;2024-02-23T12:22:43;8.40;99.90
8420;DHT22;4247;48.550;8.822;2024-02-23T12:25:12;8.40;99.90
8420;DHT22;4247;48.550;8.822;2024-02-23T12:27:40;8.40;99.90
8420;DHT22;4247;48.550;8.822;2024-02-23T12:30:13;8.30;99.90
8420;DHT22;4247;48.550;8.822;2024-02-23T12:32:40;8.30;99.90
8420;DHT22;4247;48.550;8.822;2024-02-23T12:35:07;8.30;99.90
8420;DHT22;4247;48.550;8.822;2024-02-23T12:37:35;8.30;99.90
8420;DHT22;4247;48.550;8.822;2024-02-23T12:40:02;8.20;99.90
8420;DHT22;4247;48.550;8.822;2024-02-23T12:42:29;8.20;99.90
8420;DHT22;4247;48.550;8.822;2024-02-23T12:44:57;8.20;99.90
8420;DHT22;4247;48.550;8.822;2024-02-23T12:47:24;8.10;99.90
8420;DHT22;4247;48.550;8.822;2024-02-23T12:49:50;8.10;99.90
8420;DHT22;4247;48.550;8.822;2024-02-23T12:52:17;8.10;99.90
8420;DHT22;4247;48.550;8.822;2024-02-23T12:54:44;8.10;99.90
8420;DHT22;4247;48.550;8.822;2024-02-23T12:57:10;8.00;99.90
8420;DHT22;4247;48.550;8.822;2024-02-23T12:59:37;8.00;99.90
8420;DHT22;4247;48.550;8.822;2024-02-23T13:02:07;8.00;99.90
8420;DHT22;4247;48.550;8.822;2024-02-23T13:04:34;8.10;99.90
8420;DHT22;4247;48.550;8.822;2024-02-23T13:07:01;8.10;99.90
8420;DHT22;4247;48.550;8.822;2024-02-23T13:09:27;8.20;99.90
8420;DHT22;4247;48.550;8.822;2024-02-23T13:11:54;8.20;99.90
8420;DHT22;4247;48.550;8.822;2024-02-23T13:14:21;8.20;99.90
8420;DHT22;4247;48.550;8.822;2024-02-23T13:16:48;8.20;99.90
8420;DHT22;4247;48.550;8.822;2024-02-23T13:19:16;8.10;99.90
8420;DHT22;4247;48.550;8.822;2024-02-23T13:21:42;8.10;99.90
8420;DHT22;4247;48.550;8.822;2024-02-23T13:24:09;8.20;99.90
8420;DHT22;4247;48.550;8.822;2024-02-23T13:26:35;8.20;99.90
8420;DHT22;4247;48.550;8.822;2024-02-23T13:29:02;8.30;99.90
8420;DHT22;4247;48.550;8.822;2024-02-23T13:31:29;8.30;99.90
8420;DHT22;4247;48.550;8.822;2024-02-23T13:33:56;8.40;99.90
8420;DHT22;4247;48.550;8.822;2024-02-23T13:36:24;8.40;99.90
8420;DHT22;4247;48.550;8.822;2024-02-23T13:38:50;8.50;99.90
8420;DHT22;4247;48.550;8.822;2024-02-23T13:41:17;8.50;99.90
8420;DHT22;4247;48.550;8.822;2024-02-23T13:43:44;8.50;99.90
8420;DHT22;4247;48.550;8.822;2024-02-23T13:46:10;8.40;99.90
8420;DHT22;4247;48.550;8.822;2024-02-23T13:48:37;8.40;99.90
8420;DHT22;4247;48.550;8.822;2024-02-23T13:51:04;8.50;99.90
8420;DHT22;4247;48.550;8.822;2024-02-23T13:53:32;8.40;99.90
8420;DHT22;4247;48.550;8.822;2024-02-23T13:56:01;8.40;99.90
8420;DHT22;4247;48.550;8.822;2024-02-23T13:58:29;8.50;99.90
8420;DHT22;4247;48.550;8.822;2024-02-23T14:00:55;8.40;99.90
8420;DHT22;4247;48.550;8.822;2024-02-23T14:03:22;8.40;99.90
8420;DHT22;4247;48.550;8.822;2024-02-23T14:05:49;8.40;99.90
8420;DHT22;4247;48.550;8.822;2024-02-23T14:08:17;8.40;99.90
8420;DHT22;4247;48.550;8.822;2024-02-23T14:10:45;8.40;99.90
8420;DHT22;4247;48.550;8.822;2024-02-23T14:13:12;8.40;99.90
8420;DHT22;4247;48.550;8.822;2024-02-23T14:15:39;8.50;99.90
8420;DHT22;4247;48.550;8.822;2024-02-23T14:18:05;8.40;99.90
8420;DHT22;4247;48.550;8.822;2024-02-23T14:20:32;8.30;99.90
8420;DHT22;4247;48.550;8.822;2024-02-23T14:22:59;8.30;99.90
8420;DHT22;4247;48.550;8.822;2024-02-23T14:25:26;8.30;99.90
8420;DHT22;4247;48.550;8.822;2024-02-23T14:27:54;8.30;99.90
8420;DHT22;4247;48.550;8.822;2024-02-23T14:30:21;8.30;99.90
8420;DHT22;4247;48.550;8.822;2024-02-23T14:32:48;8.30;99.90
8420;DHT22;4247;48.550;8.822;2024-02-23T14:35:15;8.30;99.90
8420;DHT22;4247;48.550;8.822;2024-02-23T14:37:42;8.20;99.90
8420;DHT22;4247;48.550;8.822;2024-02-23T14:40:09;8.10;99.90
8420;DHT22;4247;48.550;8.822;2024-02-23T14:42:37;8.10;99.90
8420;DHT22;4247;48.550;8.822;2024-02-23T14:45:07;8.00;99.90
8420;DHT22;4247;48.550;8.822;2024-02-23T14:47:34;8.00;99.90
8420;DHT22;4247;48.550;8.822;2024-02-23T14:50:01;8.00;99.90
8420;DHT22;4247;48.550;8.822;2024-02-23T14:52:29;8.10;99.90
8420;DHT22;4247;48.550;8.822;2024-02-23T14:54:56;8.10;99.90
8420;DHT22;4247;48.550;8.822;2024-02-23T14:57:23;8.10;99.90
8420;DHT22;4247;48.550;8.822;2024-02-23T14:59:50;8.00;99.90
8420;DHT22;4247;48.550;8.822;2024-02-23T15:02:20;8.00;99.90
8420;DHT22;4247;48.550;8.822;2024-02-23T16:22:48;6.90;99.90
8420;DHT22;4247;48.550;8.822;2024-02-23T16:25:16;6.90;99.90
8420;DHT22;4247;48.550;8.822;2024-02-23T16:27:43;6.90;99.90
8420;DHT22;4247;48.550;8.822;2024-02-23T16:30:11;7.00;99.90
8420;DHT22;4247;48.550;8.822;2024-02-23T16:32:38;7.00;99.90
8420;DHT22;4247;48.550;8.822;2024-02-23T16:35:05;7.00;99.90
8420;DHT22;4247;48.550;8.822;2024-02-23T16:37:32;7.10;99.90
8420;DHT22;4247;48.550;8.822;2024-02-23T16:40:00;7.10;99.90
8420;DHT22;4247;48.550;8.822;2024-02-23T16:42:26;7.10;99.90
8420;DHT22;4247;48.550;8.822;2024-02-23T16:44:53;7.10;99.90
8420;DHT22;4247;48.550;8.822;2024-02-23T16:47:20;7.10;99.90
8420;DHT22;4247;48.550;8.822;2024-02-23T16:49:46;7.10;99.90
8420;DHT22;4247;48.550;8.822;2024-02-23T16:52:13;7.20;99.90
8420;DHT22;4247;48.550;8.822;2024-02-23T16:54:40;7.10;99.90
8420;DHT22;4247;48.550;8.822;2024-02-23T16:57:08;7.10;99.90
8420;DHT22;4247;48.550;8.822;2024-02-23T16:59:34;7.10;99.90
8420;DHT22;4247;48.550;8.822;2024-02-23T17:02:01;7.10;99.90
8420;DHT22;4247;48.550;8.822;2024-02-23T17:04:28;7.10;99.90
8420;DHT22;4247;48.550;8.822;2024-02-23T17:06:54;7.10;99.90
8420;DHT22;4247;48.550;8.822;2024-02-23T17:09:22;7.10;99.90
8420;DHT22;4247;48.550;8.822;2024-02-23T17:11:49;7.00;99.90
8420;DHT22;4247;48.550;8.822;2024-02-23T17:14:17;6.90;99.90
8420;DHT22;4247;48.550;8.822;2024-02-23T17:16:43;6.80;99.90
8420;DHT22;4247;48.550;8.822;2024-02-23T17:19:10;6.80;99.90
8420;DHT22;4247;48.550;8.822;2024-02-23T17:21:38;6.80;99.90
8420;DHT22;4247;48.550;8.822;2024-02-23T17:24:05;6.70;99.90
8420;DHT22;4247;48.550;8.822;2024-02-23T17:26:32;6.60;99.90
8420;DHT22;4247;48.550;8.822;2024-02-23T17:28:58;6.50;99.90
8420;DHT22;4247;48.550;8.822;2024-02-23T17:31:26;6.50;99.90
8420;DHT22;4247;48.550;8.822;2024-02-23T17:33:53;6.30;99.90
8420;DHT22;4247;48.550;8.822;2024-02-23T17:36:20;6.30;99.90